sensor_id;sensor_type;location;lat;lon;timestamp;pressure;altitude;pressure_sealevel;temperature;humidity
83104;BME280;72975;48.134;11.630;2024-03-08T06:27:50;95187.13;;;-0.15;82.83
83104;BME280;72975;48.134;11.630;2024-03-08T06:30:19;95181.19;;;-0.15;82.91
83104;BME280;72975;48.134;11.630;2024-03-08T06:32:47;95182.53;;;-0.06;82.38
83104;BME280;72975;48.134;11.630;2024-03-08T06:35:18;95188.66;;;-0.07;82.30
83104;BME280;72975;48.134;11.630;2024-03-08T06:37:50;95181.78;;;-0.20;82.05
83104;BME280;72975;48.134;11.630;2024-03-08T06:40:21;95185.34;;;-0.14;82.02
83104;BME280;72975;48.134;11.630;2024-03-08T07:50:08;95166.72;;;1.76;73.25
83104;BME280;72975;48.134;11.630;2024-03-08T07:53:57;95159.59;;;1.60;74.45
83104;BME280;72975;48.134;11.630;2024-03-08T08:45:15;95118.63;;;5.85;60.24
83104;BME280;72975;48.134;11.630;2024-03-08T09:54:01;95058.09;;;10.36;47.36
83104;BME280;72975;48.134;11.630;2024-03-08T11:58:30;94931.34;;;13.78;38.30
83104;BME280;72975;48.134;11.630;2024-03-08T12:01:06;94943.38;;;13.43;39.57
83104;BME280;72975;48.134;11.630;2024-03-08T12:03:41;94935.69;;;14.27;38.75
83104;BME280;72975;48.134;11.630;2024-03-08T12:06:10;94922.28;;;14.59;37.51
83104;BME280;72975;48.134;11.630;2024-03-08T12:08:38;94921.72;;;13.51;38.18
83104;BME280;72975;48.134;11.630;2024-03-08T12:11:07;94926.03;;;14.14;37.31
83104;BME280;72975;48.134;11.630;2024-03-08T12:13:37;94924.28;;;13.65;36.88
83104;BME280;72975;48.134;11.630;2024-03-08T12:16:07;94917.97;;;13.88;37.00
83104;BME280;72975;48.134;11.630;2024-03-08T12:49:37;94865.72;;;14.53;36.61
83104;BME280;72975;48.134;11.630;2024-03-08T13:01:26;94849.66;;;15.72;35.84
83104;BME280;72975;48.134;11.630;2024-03-08T18:24:42;94615.88;;;7.00;60.99
83104;BME280;72975;48.134;11.630;2024-03-08T21:51:59;94464.50;;;4.41;67.72
83104;BME280;72975;48.134;11.630;2024-03-08T22:32:46;94443.97;;;4.24;67.13
83104;BME280;72975;48.134;11.630;2024-03-08T22:35:47;94437.53;;;4.74;65.98
83104;BME280;72975;48.134;11.630;2024-03-08T22:38:30;94380.28;;;3.88;66.61
83104;BME280;72975;48.134;11.630;2024-03-08T22:41:27;94451.53;;;3.94;68.59
83104;BME280;72975;48.134;11.630;2024-03-08T22:44:34;94443.34;;;3.70;69.58
83104;BME280;72975;48.134;11.630;2024-03-08T22:47:47;94444.34;;;3.96;68.45
83104;BME280;72975;48.134;11.630;2024-03-08T22:51:03;94439.41;;;3.94;68.08
83104;BME280;72975;48.134;11.630;2024-03-08T22:54:01;94440.38;;;4.20;67.30
83104;BME280;72975;48.134;11.630;2024-03-08T22:57:13;94425.84;;;4.09;67.50
83104;BME280;72975;48.134;11.630;2024-03-08T23:02:55;94428.13;;;4.06;68.21
83104;BME280;72975;48.134;11.630;2024-03-08T23:05:27;94432.44;;;3.95;68.25
83104;BME280;72975;48.134;11.630;2024-03-08T23:07:56;94433.72;;;3.92;68.43
83104;BME280;72975;48.134;11.630;2024-03-08T23:10:30;94426.94;;;4.23;66.83
83104;BME280;72975;48.134;11.630;2024-03-08T23:13:03;94430.41;;;4.02;67.79
83104;BME280;72975;48.134;11.630;2024-03-08T23:15:40;94428.84;;;3.96;67.67
83104;BME280;72975;48.134;11.630;2024-03-08T23:18:23;94433.56;;;3.72;68.75
83104;BME280;72975;48.134;11.630;2024-03-08T23:21:26;94421.09;;;3.96;67.88
83104;BME280;72975;48.134;11.630;2024-03-08T23:23:59;94426.34;;;4.06;67.64
83104;BME280;72975;48.134;11.630;2024-03-08T23:26:30;94431.59;;;3.84;67.95
83104;BME280;72975;48.134;11.630;2024-03-08T23:29:05;94434.25;;;3.94;67.86
83104;BME280;72975;48.134;11.630;2024-03-08T23:31:36;94429.81;;;3.90;67.97
83104;BME280;72975;48.134;11.630;2024-03-08T23:34:14;94438.00;;;3.77;68.58
83104;BME280;72975;48.134;11.630;2024-03-08T23:36:42;94442.63;;;3.75;68.62
83104;BME280;72975;48.134;11.630;2024-03-08T23:39:12;94432.28;;;4.12;66.96
83104;BME280;72975;48.134;11.630;2024-03-08T23:41:45;94438.41;;;3.95;67.21
83104;BME280;72975;48.134;11.630;2024-03-08T23:44:14;94438.41;;;3.63;68.30
83104;BME280;72975;48.134;11.630;2024-03-08T23:46:47;94438.66;;;3.62;68.61
83104;BME280;72975;48.134;11.630;2024-03-08T23:49:18;94440.94;;;3.90;67.59
83104;BME280;72975;48.134;11.630;2024-03-08T23:51:49;94440.06;;;3.80;67.83
83104;BME280;72975;48.134;11.630;2024-03-08T23:54:17;94439.81;;;3.76;67.68
83104;BME280;72975;48.134;11.630;2024-03-08T23:56:53;94438.97;;;3.71;68.14
83104;BME280;72975;48.134;11.630;2024-03-08T23:59:37;94441.63;;;3.76;68.04
